Time;durP1;ratioP1;P1;durP2;ratioP2;P2;SDS_P1;SDS_P2;PMS_P1;PMS_P2;Temp;Humidity;BMP_temperature;BMP_pressure;BME280_temperature;BME280_humidity;BME280_pressure;Samples;Min_cycle;Max_cycle;Signal;HPM_P1;HPM_P2
2023/09/07 00:01:44;;;;;;;3.17;2.83;;;;;;;22.77;63.32;101891.91;4987764;28;20458;-55
2023/09/07 00:04:10;;;;;;;2.65;2.45;;;;;;;22.78;63.46;101892.75;4986101;28;20394;-55
2023/09/07 00:06:35;;;;;;;2.42;2.22;;;;;;;22.78;63.54;101892.75;4990994;28;20121;-55
2023/09/07 00:09:02;;;;;;;2.38;2.17;;;;;;;22.76;63.08;101883.91;4986447;28;20046;-55
2023/09/07 00:11:27;;;;;;;2.40;2.20;;;;;;;22.76;63.12;101892.06;4989636;28;20040;-55
2023/09/07 00:13:53;;;;;;;2.53;2.30;;;;;;;22.75;62.96;101887.63;4990661;28;20388;-56
2023/09/07 00:16:18;;;;;;;2.42;2.22;;;;;;;22.76;62.94;101890.19;4987595;28;20038;-55
2023/09/07 00:18:44;;;;;;;2.45;2.10;;;;;;;22.76;63.15;101889.34;4987155;28;20125;-55
2023/09/07 00:21:09;;;;;;;2.22;2.00;;;;;;;22.74;63.27;101885.94;4988805;28;20057;-55
2023/09/07 00:23:34;;;;;;;2.53;2.33;;;;;;;22.75;63.14;101884.91;4984674;28;20042;-55
2023/09/07 00:26:00;;;;;;;2.30;2.10;;;;;;;22.73;62.94;101885.09;4986536;28;20038;-56
2023/09/07 00:28:25;;;;;;;2.58;2.30;;;;;;;22.72;63.13;101882.50;4987150;28;20077;-56
2023/09/07 00:30:50;;;;;;;2.90;1.90;;;;;;;22.72;63.36;101877.94;4982115;28;20085;-55
2023/09/07 00:33:16;;;;;;;2.33;2.13;;;;;;;22.72;63.19;101882.50;4985653;28;20480;-55
2023/09/07 00:35:41;;;;;;;2.60;2.40;;;;;;;22.72;63.17;101879.81;4987825;28;20081;-55
2023/09/07 00:38:07;;;;;;;2.83;2.55;;;;;;;22.72;62.99;101879.81;4985400;28;20034;-56
2023/09/07 00:40:32;;;;;;;2.42;2.22;;;;;;;22.71;63.08;101875.38;4985084;28;20033;-55
2023/09/07 00:42:58;;;;;;;3.70;2.58;;;;;;;22.71;63.04;101878.06;4987750;28;20492;-55
2023/09/07 00:45:24;;;;;;;1.92;1.83;;;;;;;22.70;62.85;101869.09;4980579;28;20088;-55
2023/09/07 00:47:49;;;;;;;2.47;2.28;;;;;;;22.70;62.95;101868.25;4987269;28;20100;-55
2023/09/07 00:50:16;;;;;;;2.72;2.40;;;;;;;22.70;62.62;101881.81;4988300;28;20093;-55
2023/09/07 00:52:46;;;;;;;2.55;2.30;;;;;;;22.68;62.83;101875.69;4986736;28;20034;-55
2023/09/07 00:55:12;;;;;;;2.47;2.20;;;;;;;22.69;62.82;101885.53;4987119;28;20502;-55
2023/09/07 00:57:39;;;;;;;2.38;2.17;;;;;;;22.68;62.95;101884.69;4987391;28;20057;-55
2023/09/07 01:00:07;;;;;;;2.75;2.45;;;;;;;22.68;62.98;101878.41;4986320;28;20034;-55
2023/09/07 01:02:33;;;;;;;2.60;2.40;;;;;;;22.68;62.69;101881.13;4987017;28;20034;-55
2023/09/07 01:04:58;;;;;;;2.42;2.22;;;;;;;22.68;62.89;101881.13;4984641;28;20062;-55
2023/09/07 01:07:25;;;;;;;2.60;2.40;;;;;;;22.67;62.80;101876.69;4987195;28;20037;-55
2023/09/07 01:09:56;;;;;;;2.92;2.22;;;;;;;22.67;62.76;101879.41;4991063;28;20092;-55
2023/09/07 01:12:21;;;;;;;2.55;2.20;;;;;;;22.65;62.80;101874.13;4988203;28;20025;-55
2023/09/07 01:14:47;;;;;;;2.33;2.08;;;;;;;22.65;62.78;101877.66;4989632;28;20497;-55
2023/09/07 01:17:13;;;;;;;2.75;2.50;;;;;;;22.65;62.97;101876.81;4987357;28;20493;-55
2023/09/07 01:19:39;;;;;;;3.33;2.35;;;;;;;22.64;62.75;101875.97;4991775;28;20046;-55
2023/09/07 01:22:07;;;;;;;2.47;2.28;;;;;;;22.63;62.42;101866.13;4985682;28;20046;-55
2023/09/07 01:24:34;;;;;;;2.50;2.30;;;;;;;22.63;62.48;101866.13;4989389;28;20555;-55
2023/09/07 01:27:03;;;;;;;2.38;2.15;;;;;;;22.62;62.41;101869.84;4993154;28;20034;-55
2023/09/07 01:29:29;;;;;;;3.35;2.88;;;;;;;22.62;62.69;101869.84;4986272;28;20138;-55
2023/09/07 01:31:55;;;;;;;3.15;2.42;;;;;;;22.61;62.49;101865.41;4994306;28;20042;-55
2023/09/07 01:34:20;;;;;;;2.65;2.35;;;;;;;22.61;62.17;101868.13;4991415;28;20086;-55
2023/09/07 01:36:46;;;;;;;2.60;2.40;;;;;;;22.61;62.33;101864.56;4992811;28;20073;-55
2023/09/07 01:39:11;;;;;;;2.65;2.45;;;;;;;22.61;62.09;101862.69;4992799;28;20388;-55
2023/09/07 01:41:37;;;;;;;3.33;2.85;;;;;;;22.60;62.07;101858.28;4989213;28;20124;-55
2023/09/07 01:44:02;;;;;;;2.60;2.40;;;;;;;22.60;62.02;101858.28;4986672;28;20590;-55
2023/09/07 01:46:27;;;;;;;2.40;2.20;;;;;;;22.59;62.65;101856.56;4992796;28;20060;-55
2023/09/07 01:48:53;;;;;;;2.53;2.28;;;;;;;22.59;62.53;101859.28;4988016;28;20034;-55
2023/09/07 01:51:18;;;;;;;2.60;2.40;;;;;;;22.58;62.02;101854.88;4988622;28;20481;-55
2023/09/07 01:53:47;;;;;;;2.55;2.35;;;;;;;22.58;62.57;101857.59;4991332;28;20031;-55
2023/09/07 01:56:12;;;;;;;3.17;2.33;;;;;;;22.57;62.29;101858.59;4984681;28;20037;-55
2023/09/07 01:58:38;;;;;;;2.58;2.38;;;;;;;22.57;61.93;101853.16;4984757;28;20046;-55
2023/09/07 02:01:03;;;;;;;2.47;2.28;;;;;;;22.56;61.94;101856.91;4991685;28;20049;-55
2023/09/07 02:03:29;;;;;;;2.85;2.65;;;;;;;22.56;62.15;101851.47;4986661;28;20035;-55
2023/09/07 02:05:54;;;;;;;2.60;2.40;;;;;;;22.56;62.24;101854.19;4988640;28;20381;-55
2023/09/07 02:08:19;;;;;;;3.00;2.70;;;;;;;22.55;61.94;101852.47;4988846;28;20377;-55
2023/09/07 02:10:45;;;;;;;3.22;2.78;;;;;;;22.56;61.72;101850.59;4988276;28;20034;-55
2023/09/07 02:13:11;;;;;;;6.22;2.83;;;;;;;22.55;61.74;101851.63;4988225;28;20113;-55
2023/09/07 02:15:38;;;;;;;3.20;2.58;;;;;;;22.54;61.76;101847.19;4987924;28;20031;-55
2023/09/07 02:18:05;;;;;;;2.58;2.38;;;;;;;22.54;61.71;101850.75;4988198;28;20547;-55
2023/09/07 02:20:31;;;;;;;3.20;2.90;;;;;;;22.53;61.92;101851.75;4987450;28;20488;-55
2023/09/07 02:22:57;;;;;;;2.63;2.42;;;;;;;22.53;62.24;101854.47;4988734;28;20033;-55
2023/09/07 02:25:22;;;;;;;2.72;2.50;;;;;;;22.53;61.63;101846.34;4985447;28;20034;-55
2023/09/07 02:27:47;;;;;;;3.15;2.92;;;;;;;22.52;61.51;101847.31;4988904;28;20511;-55
2023/09/07 02:30:13;;;;;;;2.95;2.65;;;;;;;22.52;62.04;101843.75;4991058;28;20051;-55
2023/09/07 02:32:38;;;;;;;3.53;2.90;;;;;;;22.52;61.93;101855.47;4988087;28;20031;-55
2023/09/07 02:35:04;;;;;;;3.95;2.80;;;;;;;22.51;61.76;101848.34;4987295;28;20034;-55
2023/09/07 02:37:29;;;;;;;3.22;2.70;;;;;;;22.50;61.83;101849.34;4988151;28;20191;-55
2023/09/07 02:39:55;;;;;;;2.85;2.60;;;;;;;22.50;61.65;101849.34;4986898;28;20580;-55
2023/09/07 02:42:20;;;;;;;2.75;2.50;;;;;;;22.49;61.67;101850.34;4991586;28;20046;-55
2023/09/07 02:44:45;;;;;;;2.70;2.50;;;;;;;22.50;61.80;101849.34;4992945;28;20065;-55
2023/09/07 02:47:11;;;;;;;3.17;2.88;;;;;;;22.50;61.64;101848.50;4988775;28;20038;-55
2023/09/07 02:49:36;;;;;;;3.25;2.95;;;;;;;22.49;61.36;101850.34;4987092;28;20066;-55
2023/09/07 02:52:02;;;;;;;2.67;2.47;;;;;;;22.49;61.48;101852.22;4990510;28;20563;-55
2023/09/07 02:54:27;;;;;;;2.90;2.53;;;;;;;22.49;61.15;101844.09;4985601;28;20043;-55
2023/09/07 02:56:53;;;;;;;2.95;2.75;;;;;;;22.48;61.13;101854.06;4982211;28;20057;-55
2023/09/07 02:59:18;;;;;;;3.22;2.92;;;;;;;22.47;61.72;101841.53;4990415;28;20046;-55
2023/09/07 03:01:43;;;;;;;2.92;2.63;;;;;;;22.47;61.44;101841.53;4989120;28;20069;-55
2023/09/07 03:04:09;;;;;;;2.90;2.70;;;;;;;22.47;61.17;101840.66;4987448;28;20595;-55
2023/09/07 03:06:34;;;;;;;3.13;2.90;;;;;;;22.47;61.60;101837.97;4988489;28;20031;-55
2023/09/07 03:08:59;;;;;;;3.88;2.72;;;;;;;22.46;61.27;101837.09;4985043;28;20031;-55
2023/09/07 03:11:25;;;;;;;2.88;2.60;;;;;;;22.46;61.44;101845.22;4987251;28;20385;-56
2023/09/07 03:13:50;;;;;;;3.60;3.30;;;;;;;22.46;61.00;101842.50;4989523;28;20422;-55
2023/09/07 03:16:16;;;;;;;2.92;2.63;;;;;;;22.44;61.09;101841.81;4983014;28;20066;-55
2023/09/07 03:18:41;;;;;;;4.13;3.28;;;;;;;22.45;61.42;101851.69;4988831;28;20095;-55
2023/09/07 03:21:07;;;;;;;3.40;3.10;;;;;;;22.44;60.80;101849.94;4987126;28;20476;-55
2023/09/07 03:23:33;;;;;;;3.38;3.08;;;;;;;22.44;61.40;101852.66;4982271;28;20045;-55
2023/09/07 03:25:59;;;;;;;3.15;2.90;;;;;;;22.44;61.21;101849.94;4989914;28;20034;-55
2023/09/07 03:28:25;;;;;;;3.33;3.03;;;;;;;22.42;61.08;101838.41;4988712;28;20407;-56
2023/09/07 03:30:54;;;;;;;3.22;2.92;;;;;;;22.43;61.01;101842.84;4985506;28;20061;-55
2023/09/07 03:33:19;;;;;;;3.08;2.78;;;;;;;22.42;60.84;101838.41;4989392;28;20060;-55
2023/09/07 03:35:45;;;;;;;3.22;2.92;;;;;;;22.42;61.02;101843.81;4987337;28;20030;-55
2023/09/07 03:38:10;;;;;;;3.97;3.28;;;;;;;22.42;60.93;101849.25;4984132;28;20061;-55
2023/09/07 03:40:36;;;;;;;3.25;2.95;;;;;;;22.41;60.93;101853.00;4987908;28;20092;-55
2023/09/07 03:43:01;;;;;;;3.25;2.95;;;;;;;22.41;61.05;101859.25;4987366;28;20493;-55
2023/09/07 03:45:26;;;;;;;4.35;3.13;;;;;;;22.41;60.81;101847.56;4986315;28;20057;-55
2023/09/07 03:47:52;;;;;;;2.97;2.70;;;;;;;22.40;60.96;101859.41;4998097;28;20033;-55
2023/09/07 03:50:17;;;;;;;3.50;3.20;;;;;;;22.41;60.99;101858.41;4987984;28;20149;-55
2023/09/07 03:52:42;;;;;;;3.15;2.83;;;;;;;22.40;60.87;101864.84;4984462;28;20042;-55
2023/09/07 03:55:08;;;;;;;2.92;2.72;;;;;;;22.40;60.60;101859.41;4986780;28;20124;-55
2023/09/07 03:57:33;;;;;;;2.75;2.55;;;;;;;22.39;60.81;101858.56;4986566;28;20042;-55
2023/09/07 04:00:00;;;;;;;3.00;2.72;;;;;;;22.39;61.08;101863.09;4984721;28;20031;-55
2023/09/07 04:02:25;;;;;;;4.78;2.90;;;;;;;22.38;60.91;101856.84;4986632;28;20053;-55
2023/09/07 04:04:57;;;;;;;3.08;2.78;;;;;;;22.37;60.71;101854.25;4990925;28;20468;-55
2023/09/07 04:07:22;;;;;;;3.47;2.90;;;;;;;22.38;60.54;101853.28;4984241;28;20059;-55
2023/09/07 04:09:49;;;;;;;3.10;2.80;;;;;;;22.38;60.31;101853.28;4988515;28;20384;-55
2023/09/07 04:12:15;;;;;;;4.07;3.20;;;;;;;22.37;60.49;101851.56;4991487;28;20401;-55
2023/09/07 04:14:41;;;;;;;3.65;3.35;;;;;;;22.36;60.83;101845.28;4984552;28;20042;-55
2023/09/07 04:17:07;;;;;;;2.92;2.53;;;;;;;22.36;60.81;101844.44;4991242;28;20053;-55
2023/09/07 04:19:32;;;;;;;3.35;2.90;;;;;;;22.36;60.71;101853.41;4987963;28;20039;-55
2023/09/07 04:21:58;;;;;;;3.72;3.28;;;;;;;22.35;60.19;101850.84;4987652;28;20042;-55
2023/09/07 04:24:23;;;;;;;3.22;2.97;;;;;;;22.35;60.66;101851.72;4989836;28;20121;-55
2023/09/07 04:26:49;;;;;;;3.45;3.15;;;;;;;22.36;60.22;101852.56;4988962;28;20053;-55
2023/09/07 04:29:15;;;;;;;3.30;2.97;;;;;;;22.33;60.24;101847.44;4983654;28;20049;-53
2023/09/07 04:31:41;;;;;;;3.15;2.85;;;;;;;22.33;60.61;101851.03;4989104;28;20170;-55
2023/09/07 04:34:06;;;;;;;3.17;2.90;;;;;;;22.33;60.62;101858.28;4984879;28;20584;-55
2023/09/07 04:36:32;;;;;;;3.08;2.78;;;;;;;22.33;60.41;101858.28;4983650;28;20046;-55
2023/09/07 04:38:57;;;;;;;3.28;2.97;;;;;;;22.33;59.93;101859.16;4993205;28;20069;-55
2023/09/07 04:41:23;;;;;;;3.80;3.10;;;;;;;22.32;60.24;101857.44;4986014;28;20489;-55
2023/09/07 04:43:48;;;;;;;3.97;2.90;;;;;;;22.32;60.01;101853.88;4989246;28;20034;-55
2023/09/07 04:46:14;;;;;;;4.20;3.15;;;;;;;22.32;60.35;101870.16;4992326;28;20041;-55
2023/09/07 04:48:41;;;;;;;2.95;2.70;;;;;;;22.31;60.23;101858.44;4993755;28;20052;-55
2023/09/07 04:51:08;;;;;;;2.95;2.67;;;;;;;22.30;60.30;101854.03;4991103;28;20108;-55
2023/09/07 04:53:39;;;;;;;3.53;2.92;;;;;;;22.30;60.27;101854.03;4990188;28;20109;-55
2023/09/07 04:56:07;;;;;;;3.00;2.80;;;;;;;22.30;60.19;101861.31;4984536;28;20073;-55
2023/09/07 04:58:33;;;;;;;3.72;3.00;;;;;;;22.30;60.18;101853.19;4987135;28;20034;-55
2023/09/07 05:01:06;;;;;;;3.28;2.97;;;;;;;22.30;60.27;101855.91;4991111;28;20388;-55
2023/09/07 05:03:31;;;;;;;2.97;2.67;;;;;;;22.28;60.12;101856.03;4993633;28;20042;-55
2023/09/07 05:05:57;;;;;;;3.30;3.00;;;;;;;22.28;59.50;101857.91;4989318;28;20380;-55
2023/09/07 05:08:24;;;;;;;3.83;2.80;;;;;;;22.28;60.09;101857.91;4990549;28;20038;-55
2023/09/07 05:10:55;;;;;;;3.40;3.10;;;;;;;22.29;60.12;101859.59;4989635;28;20765;-55
2023/09/07 05:13:20;;;;;;;3.25;2.95;;;;;;;22.28;60.01;101863.34;4992142;28;20104;-55
2023/09/07 05:15:50;;;;;;;3.40;2.67;;;;;;;22.26;59.95;101863.47;4988934;28;20049;-55
2023/09/07 05:18:17;;;;;;;3.47;3.10;;;;;;;22.25;59.88;101868.03;4989406;28;20045;-55
2023/09/07 05:20:44;;;;;;;3.17;2.88;;;;;;;22.25;60.04;101870.75;4989372;28;20039;-55
2023/09/07 05:23:15;;;;;;;3.53;3.10;;;;;;;22.24;59.60;101869.03;4990622;28;20026;-55
2023/09/07 05:25:50;;;;;;;3.20;2.90;;;;;;;22.24;60.03;101876.31;4985668;28;20038;-55
2023/09/07 05:28:16;;;;;;;3.20;2.90;;;;;;;22.24;59.62;101873.59;4988773;28;20041;-55
2023/09/07 05:30:42;;;;;;;2.85;2.65;;;;;;;22.23;59.93;101871.88;4992237;28;20523;-55
2023/09/07 05:33:10;;;;;;;3.20;2.90;;;;;;;22.23;59.94;101866.44;4988115;28;20034;-56
2023/09/07 05:35:35;;;;;;;2.63;2.42;;;;;;;22.24;59.63;101876.31;4991084;28;20041;-56
2023/09/07 05:38:02;;;;;;;2.83;2.60;;;;;;;22.23;59.90;101878.16;4992038;28;20038;-56
2023/09/07 05:40:28;;;;;;;3.28;2.92;;;;;;;22.22;59.86;101881.88;4985179;28;20524;-55
2023/09/07 05:42:53;;;;;;;2.97;2.75;;;;;;;22.22;59.81;101884.59;4992100;28;20034;-56
2023/09/07 05:45:18;;;;;;;2.65;2.45;;;;;;;22.22;59.78;101887.31;4990409;28;20037;-56
2023/09/07 05:47:44;;;;;;;3.22;2.92;;;;;;;22.23;59.38;101885.44;4985140;28;20030;-56
2023/09/07 05:50:09;;;;;;;2.72;2.53;;;;;;;22.21;59.06;101885.59;4991306;28;20038;-55
2023/09/07 05:52:35;;;;;;;2.90;2.70;;;;;;;22.22;59.36;101886.47;4988238;28;20043;-56
2023/09/07 05:55:00;;;;;;;3.42;2.58;;;;;;;22.21;59.29;101890.16;4984521;28;20145;-56
2023/09/07 05:57:26;;;;;;;3.13;2.60;;;;;;;22.21;59.08;101890.16;4990692;28;20820;-56
2023/09/07 05:59:51;;;;;;;2.83;2.55;;;;;;;22.21;59.30;101892.88;4984426;28;20038;-56
2023/09/07 06:02:16;;;;;;;2.95;2.65;;;;;;;22.20;59.53;101888.44;4992336;28;20700;-55
2023/09/07 06:04:42;;;;;;;3.10;2.90;;;;;;;22.19;59.07;101887.59;4990137;28;20369;-55
2023/09/07 06:07:07;;;;;;;3.47;3.00;;;;;;;22.19;59.38;101893.00;4989506;28;20026;-56
2023/09/07 06:09:32;;;;;;;2.78;2.58;;;;;;;22.20;58.97;101902.00;4989398;28;20173;-56
2023/09/07 06:11:58;;;;;;;3.40;3.10;;;;;;;22.19;59.26;101903.88;4993374;28;20404;-56
2023/09/07 06:14:23;;;;;;;3.13;2.83;;;;;;;22.19;59.02;101900.31;4986470;28;20042;-56
2023/09/07 06:16:48;;;;;;;3.10;2.80;;;;;;;22.19;59.07;101906.59;4988371;28;20046;-56
2023/09/07 06:19:14;;;;;;;2.90;2.70;;;;;;;22.19;59.29;101908.44;4990073;28;20046;-56
2023/09/07 06:21:39;;;;;;;2.63;2.35;;;;;;;22.18;59.57;101906.72;4986653;28;20509;-56
2023/09/07 06:24:06;;;;;;;4.20;3.30;;;;;;;22.18;59.11;101910.31;4986859;28;20042;-56
2023/09/07 06:26:32;;;;;;;2.90;2.70;;;;;;;22.18;59.47;101915.75;4991268;28;20062;-56
2023/09/07 06:28:57;;;;;;;3.28;2.97;;;;;;;22.18;59.01;101915.75;4990591;28;20045;-56
2023/09/07 06:31:22;;;;;;;3.05;2.78;;;;;;;22.18;59.52;101915.75;4988475;28;20058;-55
2023/09/07 06:33:48;;;;;;;3.05;2.75;;;;;;;22.17;58.98;101905.88;4983933;28;20125;-55
2023/09/07 06:36:13;;;;;;;3.58;2.75;;;;;;;22.18;59.05;101913.03;4990077;28;20027;-55
2023/09/07 06:38:39;;;;;;;3.00;2.80;;;;;;;22.18;59.27;101920.28;4983630;28;20613;-55
2023/09/07 06:41:07;;;;;;;2.90;2.70;;;;;;;22.17;59.15;101919.44;4987679;28;20042;-55
2023/09/07 06:43:32;;;;;;;3.60;2.55;;;;;;;22.17;59.21;101919.44;4989499;28;20125;-55
2023/09/07 06:46:07;;;;;;;3.00;2.67;;;;;;;22.18;59.53;101917.56;4986383;28;20578;-55
2023/09/07 06:48:33;;;;;;;2.65;2.45;;;;;;;22.17;59.32;101918.59;4986348;28;20029;-56
2023/09/07 06:51:03;;;;;;;3.33;2.60;;;;;;;22.18;59.44;101918.44;4989767;28;20088;-55
2023/09/07 06:53:29;;;;;;;2.83;2.63;;;;;;;22.18;59.22;101910.31;4987489;28;20116;-56
2023/09/07 06:55:58;;;;;;;3.08;2.78;;;;;;;22.18;59.23;101920.28;4988447;28;20162;-56
2023/09/07 06:58:24;;;;;;;2.83;2.63;;;;;;;22.17;59.29;101907.75;4986060;28;20038;-56
2023/09/07 07:00:49;;;;;;;3.10;2.80;;;;;;;22.17;58.95;101919.44;4987138;28;20048;-56
2023/09/07 07:03:15;;;;;;;2.72;2.47;;;;;;;22.17;58.95;101922.16;4990479;28;20042;-56
2023/09/07 07:05:40;;;;;;;3.15;2.85;;;;;;;22.17;59.36;101927.56;4983894;28;20066;-56
2023/09/07 07:08:05;;;;;;;2.83;2.63;;;;;;;22.17;58.86;101919.44;4986975;28;20038;-56
2023/09/07 07:10:31;;;;;;;3.10;2.80;;;;;;;22.18;59.44;101932.03;4987895;28;20038;-56
2023/09/07 07:12:56;;;;;;;2.75;2.20;;;;;;;22.17;59.51;101927.56;4986296;28;20057;-56
2023/09/07 07:15:21;;;;;;;2.67;2.47;;;;;;;22.18;59.39;101928.44;4987440;28;20043;-56
2023/09/07 07:17:47;;;;;;;2.55;2.35;;;;;;;22.17;59.09;101929.44;4988451;28;20062;-56
2023/09/07 07:20:12;;;;;;;2.50;2.30;;;;;;;22.18;59.64;101936.56;4987891;28;20444;-56
2023/09/07 07:22:37;;;;;;;2.65;2.45;;;;;;;22.17;59.09;101927.56;4986974;28;20050;-56
2023/09/07 07:25:06;;;;;;;2.70;2.50;;;;;;;22.18;59.30;101931.13;4988765;28;20038;-56
2023/09/07 07:27:32;;;;;;;2.80;2.58;;;;;;;22.17;59.52;101930.28;4981380;28;20045;-56
2023/09/07 07:29:57;;;;;;;3.95;2.80;;;;;;;22.17;59.46;101929.44;4988983;28;20058;-56
2023/09/07 07:32:22;;;;;;;3.25;2.95;;;;;;;22.17;58.78;101927.56;4989516;28;20041;-56
2023/09/07 07:34:49;;;;;;;3.22;2.50;;;;;;;22.17;59.05;101922.16;4986192;28;20113;-56
2023/09/07 07:37:14;;;;;;;2.58;2.38;;;;;;;22.16;59.35;101925.88;4988843;28;20038;-56
2023/09/07 07:39:40;;;;;;;2.50;2.30;;;;;;;22.17;59.30;101930.28;4987856;28;20258;-56
2023/09/07 07:42:06;;;;;;;3.35;3.05;;;;;;;22.17;59.34;101922.16;4984568;28;20151;-56
2023/09/07 07:44:31;;;;;;;2.53;2.33;;;;;;;22.17;59.30;101933.00;4992244;28;20114;-56
2023/09/07 07:46:56;;;;;;;2.75;2.55;;;;;;;22.18;59.04;101928.44;4987282;28;20034;-56
2023/09/07 07:49:22;;;;;;;2.50;2.30;;;;;;;22.18;59.13;101923.00;4986744;28;20484;-56
2023/09/07 07:51:47;;;;;;;2.83;2.63;;;;;;;22.18;59.41;101921.16;4988414;28;20753;-56
2023/09/07 07:54:13;;;;;;;2.90;2.70;;;;;;;22.20;59.14;101926.41;4986530;28;20026;-56
2023/09/07 07:56:39;;;;;;;2.95;2.40;;;;;;;22.18;59.51;101923.88;4984603;28;20129;-56
2023/09/07 07:59:05;;;;;;;3.10;2.60;;;;;;;22.19;59.53;101922.00;4988832;28;20096;-55
2023/09/07 08:01:30;;;;;;;3.92;2.38;;;;;;;22.19;59.62;101920.16;4985349;28;20810;-56
2023/09/07 08:03:55;;;;;;;4.05;2.88;;;;;;;22.19;59.77;101912.00;4985942;28;20781;-56
2023/09/07 08:06:21;;;;;;;4.00;2.80;;;;;;;22.20;59.47;101904.72;4986805;28;20030;-56
2023/09/07 08:08:46;;;;;;;2.90;2.47;;;;;;;22.20;59.26;101911.03;4988548;28;20117;-56
2023/09/07 08:11:12;;;;;;;2.55;2.17;;;;;;;22.20;59.74;101902.00;4984502;28;20073;-56
2023/09/07 08:13:37;;;;;;;2.50;2.30;;;;;;;22.20;59.42;101905.59;4987332;28;20097;-56
2023/09/07 08:16:04;;;;;;;2.78;2.58;;;;;;;22.20;59.27;101902.88;4994447;28;20400;-56
2023/09/07 08:18:32;;;;;;;3.88;2.65;;;;;;;22.21;59.67;101910.00;4992660;28;20053;-56
2023/09/07 08:20:58;;;;;;;4.55;2.65;;;;;;;22.20;59.45;101902.88;4993771;28;20026;-56
2023/09/07 08:23:23;;;;;;;4.72;3.00;;;;;;;22.21;60.00;101896.44;4990998;28;20030;-56
2023/09/07 08:25:51;;;;;;;3.20;2.58;;;;;;;22.22;59.51;101900.88;4988577;28;20054;-56
2023/09/07 08:28:18;;;;;;;2.90;2.70;;;;;;;22.22;60.02;101894.59;4995229;28;20070;-56
2023/09/07 08:30:44;;;;;;;4.07;3.17;;;;;;;22.21;59.91;101885.59;4991469;28;20072;-56
2023/09/07 08:33:09;;;;;;;2.95;2.67;;;;;;;22.22;59.73;101886.47;4993446;28;20045;-56
2023/09/07 08:35:35;;;;;;;2.83;2.63;;;;;;;22.23;59.73;101889.00;4993175;28;20140;-56
2023/09/07 08:38:04;;;;;;;3.03;2.53;;;;;;;22.22;59.88;101887.31;4990401;28;20481;-56
2023/09/07 08:40:32;;;;;;;4.80;2.88;;;;;;;22.23;59.81;101888.16;4987039;28;20484;-56
2023/09/07 08:43:00;;;;;;;2.70;2.50;;;;;;;22.23;59.72;101885.44;4993150;28;20034;-56
2023/09/07 08:45:26;;;;;;;4.28;2.88;;;;;;;22.24;60.15;101885.28;4990262;28;20391;-56
2023/09/07 08:47:54;;;;;;;7.85;3.42;;;;;;;22.24;60.24;101888.00;4989863;28;20814;-56
2023/09/07 08:50:20;;;;;;;3.20;3.00;;;;;;;22.24;60.37;101890.72;4994115;28;20027;-56
2023/09/07 08:52:50;;;;;;;3.63;2.95;;;;;;;22.25;59.98;101881.59;4991562;28;20050;-56
2023/09/07 08:55:15;;;;;;;3.90;3.08;;;;;;;22.25;59.96;101887.03;4991174;28;20065;-56
2023/09/07 08:57:41;;;;;;;5.68;3.50;;;;;;;22.24;60.42;101874.44;4988928;28;20137;-56
2023/09/07 09:00:15;;;;;;;6.50;3.10;;;;;;;22.26;60.17;101877.03;4989679;28;20065;-56
2023/09/07 09:02:41;;;;;;;4.70;3.10;;;;;;;22.25;60.32;101876.16;4989035;28;20034;-55
2023/09/07 09:05:09;;;;;;;5.38;3.10;;;;;;;22.26;60.00;101871.63;4992709;28;20478;-56
2023/09/07 09:07:34;;;;;;;6.68;3.40;;;;;;;22.26;60.55;101877.03;4991891;28;20046;-56
2023/09/07 09:10:09;;;;;;;3.42;3.05;;;;;;;22.28;60.74;101876.91;4984736;28;20084;-55
2023/09/07 09:12:34;;;;;;;3.78;3.03;;;;;;;22.28;60.28;101876.91;4990429;28;20455;-56
2023/09/07 09:15:03;;;;;;;4.32;3.03;;;;;;;22.28;60.24;101879.63;4989599;28;20042;-55
2023/09/07 09:17:28;;;;;;;4.75;2.63;;;;;;;22.29;60.59;101881.31;4989928;28;20427;-56
2023/09/07 09:19:54;;;;;;;4.07;2.90;;;;;;;22.28;60.37;101879.63;4991224;28;20092;-56
2023/09/07 09:22:20;;;;;;;4.88;3.10;;;;;;;22.29;60.65;101881.31;4989665;28;20034;-56
2023/09/07 09:24:48;;;;;;;5.20;2.97;;;;;;;22.28;60.67;101882.31;4991050;28;20034;-55
2023/09/07 09:27:13;;;;;;;4.15;2.97;;;;;;;22.29;60.86;101876.72;4988294;28;20092;-56
2023/09/07 09:29:38;;;;;;;6.20;3.28;;;;;;;22.29;60.28;101873.16;4988434;28;20488;-55
2023/09/07 09:32:06;;;;;;;2.88;2.67;;;;;;;22.29;60.89;101873.16;4989437;28;20125;-55
2023/09/07 09:34:35;;;;;;;7.40;3.60;;;;;;;22.29;60.46;101863.16;4988215;28;20460;-56
2023/09/07 09:37:02;;;;;;;8.52;2.95;;;;;;;22.29;60.83;101865.88;4988196;28;20125;-56
2023/09/07 09:39:28;;;;;;;8.75;3.33;;;;;;;22.29;60.59;101856.88;4987139;28;20417;-55
2023/09/07 09:41:54;;;;;;;5.00;3.05;;;;;;;22.30;60.85;101862.16;4990639;28;20117;-56
2023/09/07 09:44:25;;;;;;;5.40;3.67;;;;;;;22.29;60.63;101859.59;4987061;28;20049;-56
2023/09/07 09:46:53;;;;;;;4.05;3.42;;;;;;;22.30;61.05;101856.75;4991071;28;20038;-56
2023/09/07 09:49:21;;;;;;;3.22;2.90;;;;;;;22.31;60.79;101857.59;4991164;28;20084;-56
2023/09/07 09:51:49;;;;;;;9.02;3.75;;;;;;;22.31;60.54;101860.31;4984494;28;20033;-55
2023/09/07 09:54:19;;;;;;;6.25;3.78;;;;;;;22.31;60.87;101857.59;4992675;28;20085;-56
2023/09/07 09:56:45;;;;;;;4.85;3.33;;;;;;;22.32;61.17;101859.31;4991391;28;20042;-56
2023/09/07 09:59:12;;;;;;;5.00;3.20;;;;;;;22.31;61.16;101857.59;4996392;28;20156;-56
2023/09/07 10:01:46;;;;;;;5.07;3.35;;;;;;;22.31;60.59;101853.00;4988502;28;20106;-56
2023/09/07 10:04:17;;;;;;;6.75;3.55;;;;;;;22.32;61.10;101851.19;4986515;28;20061;-56
2023/09/07 10:07:00;;;;;;;4.32;3.60;;;;;;;22.33;60.80;101851.03;4984655;28;20734;-56
2023/09/07 10:09:29;;;;;;;3.58;3.13;;;;;;;22.32;60.54;101848.47;4985623;28;20074;-56
2023/09/07 10:11:59;;;;;;;3.53;3.05;;;;;;;22.33;60.96;101855.56;4988446;28;20022;-56
2023/09/07 10:14:25;;;;;;;7.53;3.40;;;;;;;22.34;60.66;101846.44;4984473;28;20498;-56
2023/09/07 10:16:59;;;;;;;4.00;3.30;;;;;;;22.33;60.71;101856.47;4985243;28;20118;-56
2023/09/07 10:19:26;;;;;;;4.00;3.13;;;;;;;22.34;61.23;101852.72;4988704;28;20670;-56
2023/09/07 10:21:55;;;;;;;3.97;3.50;;;;;;;22.35;61.07;101857.16;4989710;28;20142;-56
2023/09/07 10:24:35;;;;;;;4.93;3.53;;;;;;;22.36;61.11;101856.13;4981328;28;20424;-56
2023/09/07 10:27:08;;;;;;;6.88;3.80;;;;;;;22.38;61.10;101853.28;4990840;28;20029;-56
2023/09/07 10:29:44;;;;;;;11.13;4.03;;;;;;;22.40;61.49;101851.25;4925527;28;1731579;-55
2023/09/07 10:32:14;;;;;;;9.25;3.72;;;;;;;22.38;61.60;101843.28;4991669;28;20431;-56
2023/09/07 10:34:43;;;;;;;14.10;3.85;;;;;;;22.40;61.07;101848.56;4991083;28;20030;-56
2023/09/07 10:37:13;;;;;;;5.20;3.30;;;;;;;22.39;61.12;101844.13;4989707;28;20026;-56
2023/09/07 10:39:40;;;;;;;4.45;3.67;;;;;;;22.40;61.35;101840.41;4986529;28;20121;-55
2023/09/07 10:42:05;;;;;;;8.93;3.25;;;;;;;22.40;61.52;101840.41;4990230;28;20045;-56
2023/09/07 10:44:31;;;;;;;8.35;3.75;;;;;;;22.41;61.12;101836.72;4985800;28;20038;-56
2023/09/07 10:46:57;;;;;;;12.02;3.70;;;;;;;22.40;61.48;101832.28;4987786;28;20035;-56
2023/09/07 10:49:24;;;;;;;10.77;3.50;;;;;;;22.40;61.61;101829.56;4989419;28;20067;-56
2023/09/07 10:51:49;;;;;;;16.83;4.07;;;;;;;22.44;62.66;101825.53;4986877;28;20495;-55
2023/09/07 10:54:22;;;;;;;22.70;5.13;;;;;;;22.50;64.63;101819.47;4988631;28;20034;-54
2023/09/07 10:56:49;;;;;;;29.13;6.78;;;;;;;22.55;65.53;101827.19;4988513;28;20117;-55
2023/09/07 10:59:15;;;;;;;27.05;6.00;;;;;;;22.59;65.12;101812.28;4988542;28;20026;-55
2023/09/07 11:01:41;;;;;;;36.58;6.40;;;;;;;22.63;64.53;101811.81;4986766;28;20030;-55
2023/09/07 11:04:08;;;;;;;14.68;5.28;;;;;;;22.67;64.53;101815.09;4992376;28;20035;-55
2023/09/07 11:06:34;;;;;;;23.65;6.65;;;;;;;22.70;64.00;101808.50;4986436;28;20046;-55
2023/09/07 11:09:00;;;;;;;19.23;5.18;;;;;;;22.72;64.39;101806.50;4986413;28;20030;-55
2023/09/07 11:11:26;;;;;;;21.40;5.10;;;;;;;22.73;63.91;101802.75;4991679;28;20050;-55
2023/09/07 11:13:52;;;;;;;20.85;5.53;;;;;;;22.76;63.75;101807.88;4987468;28;20480;-55
2023/09/07 11:16:17;;;;;;;11.55;4.32;;;;;;;22.78;64.01;101803.16;4988305;28;20121;-55
2023/09/07 11:18:44;;;;;;;17.50;5.00;;;;;;;22.80;63.93;101806.56;4989252;28;20120;-55
2023/09/07 11:21:10;;;;;;;10.77;4.55;;;;;;;22.81;63.98;101805.56;4986712;28;20034;-55